createdAt,value
2019-01-25T00:00:35.125Z,77.67
2019-01-25T00:03:42.849Z,93.47
2019-01-25T00:06:30.847Z,97.50
2019-01-25T00:09:40.166Z,132.17
2019-01-25T00:15:35.106Z,111.07
2019-01-25T00:18:42.392Z,100.60
2019-01-25T00:21:30.162Z,113.63
2019-01-25T00:24:34.996Z,118.83
2019-01-25T00:27:23.193Z,122.07
2019-01-25T00:30:28.710Z,104.17
2019-01-25T00:33:17.350Z,106.27
2019-01-25T00:36:22.862Z,104.87
2019-01-25T00:39:10.992Z,94.07
2019-01-25T00:42:16.956Z,104.17
2019-01-25T00:45:05.985Z,90.63
2019-01-25T00:48:10.869Z,86.73
2019-01-25T00:51:00.406Z,78.53
2019-01-25T00:54:08.313Z,76.77
2019-01-25T00:56:57.635Z,73.30
2019-01-25T01:00:05.508Z,70.63
2019-01-25T01:02:53.550Z,78.23
2019-01-25T01:05:58.408Z,70.10
2019-01-25T01:11:48.148Z,70.60
2019-01-25T01:14:54.123Z,81.70
2019-01-25T01:17:43.132Z,72.83
2019-01-25T01:20:48.722Z,78.60
2019-01-25T01:23:37.980Z,72.80
2019-01-25T01:26:45.681Z,75.03
2019-01-25T01:29:33.667Z,71.87
2019-01-25T01:32:39.732Z,80.20
2019-01-25T01:35:29.317Z,73.70
2019-01-25T01:38:35.612Z,76.37
2019-01-25T01:41:24.951Z,87.43
2019-01-25T01:44:30.995Z,84.97
2019-01-25T01:47:18.777Z,98.40
2019-01-25T01:50:24.756Z,81.33
2019-01-25T01:53:14.180Z,94.27
2019-01-25T01:56:19.271Z,107.00
2019-01-25T01:59:07.599Z,99.43
2019-01-25T02:02:11.941Z,106.53
2019-01-25T02:05:02.770Z,112.67
2019-01-25T02:08:07.431Z,109.20
2019-01-25T02:10:56.602Z,100.20
2019-01-25T02:14:02.433Z,107.23
2019-01-25T02:16:51.744Z,105.43
2019-01-25T02:19:57.644Z,103.97
2019-01-25T02:22:45.808Z,100.03
2019-01-25T02:25:50.344Z,109.67
2019-01-25T02:28:38.574Z,100.83
2019-01-25T02:31:43.311Z,91.67
2019-01-25T02:34:31.456Z,90.23
2019-01-25T02:37:36.382Z,72.97
2019-01-25T02:40:24.478Z,70.07
2019-01-25T02:43:29.005Z,65.60
2019-01-25T02:46:17.304Z,74.10
2019-01-25T02:49:23.162Z,72.97
2019-01-25T02:52:12.671Z,73.27
2019-01-25T02:55:17.342Z,80.43
2019-01-25T02:58:06.432Z,80.57
2019-01-25T03:01:12.314Z,79.20
2019-01-25T03:04:01.377Z,81.00
2019-01-25T03:07:07.504Z,88.13
2019-01-25T03:09:56.667Z,89.40
2019-01-25T03:13:04.933Z,100.47
2019-01-25T03:15:52.897Z,98.93
2019-01-25T03:18:57.879Z,104.13
2019-01-25T03:24:47.679Z,97.23
2019-01-25T03:27:58.068Z,88.77
2019-01-25T03:30:46.018Z,91.47
2019-01-25T03:33:50.865Z,89.13
2019-01-25T03:36:39.141Z,98.97
2019-01-25T03:39:43.968Z,104.97
2019-01-25T03:42:31.958Z,122.00
2019-01-25T03:45:36.507Z,128.00
2019-01-25T03:48:26.189Z,138.00
2019-01-25T03:51:32.313Z,146.50
2019-01-25T03:54:20.327Z,145.60
2019-01-25T03:57:25.805Z,165.43
2019-01-25T04:00:13.854Z,160.63
2019-01-25T04:03:19.836Z,149.00
2019-01-25T04:06:07.979Z,155.70
2019-01-25T04:09:13.363Z,156.30
2019-01-25T04:12:01.447Z,152.23
2019-01-25T04:15:05.934Z,138.57
2019-01-25T04:17:55.871Z,131.80
2019-01-25T04:21:01.910Z,139.93
2019-01-25T04:23:50.053Z,132.93
2019-01-25T04:26:56.047Z,150.70
2019-01-25T04:29:44.017Z,171.47
2019-01-25T04:32:51.754Z,232.67
2019-01-25T04:35:39.798Z,240.13
2019-01-25T04:38:44.382Z,289.07
2019-01-25T04:41:35.995Z,267.77
2019-01-25T04:48:07.160Z,294.83
2019-01-25T04:51:13.440Z,361.60
2019-01-25T04:54:13.744Z,308.20
2019-01-25T04:57:19.123Z,312.67
2019-01-25T05:00:06.937Z,246.03
2019-01-25T05:03:11.673Z,246.60
2019-01-25T05:05:59.491Z,239.47
2019-01-25T05:09:05.198Z,159.53
2019-01-25T05:11:53.223Z,163.70
2019-01-25T05:14:57.814Z,179.83
2019-01-25T05:17:45.847Z,156.30
2019-01-25T05:20:50.826Z,155.30
2019-01-25T05:23:39.344Z,136.83
2019-01-25T05:26:43.962Z,140.27
2019-01-25T05:29:32.220Z,151.13
2019-01-25T05:32:39.832Z,144.97
2019-01-25T05:35:27.926Z,128.60
2019-01-25T05:38:32.454Z,133.77
2019-01-25T05:41:01.097Z,146.37
2019-01-25T05:43:34.606Z,150.63
2019-01-25T05:46:03.181Z,159.17
2019-01-25T05:48:32.682Z,135.43
2019-01-25T05:51:10.605Z,133.83
2019-01-25T05:53:44.777Z,147.47
2019-01-25T05:56:13.624Z,179.33
2019-01-25T05:58:42.312Z,193.17
2019-01-25T06:01:11.047Z,187.43
2019-01-25T06:03:41.482Z,210.60
2019-01-25T06:06:18.253Z,180.20
2019-01-25T06:08:48.943Z,194.57
2019-01-25T06:11:21.315Z,191.10
2019-01-25T06:13:50.210Z,187.33
2019-01-25T06:16:23.195Z,185.60
2019-01-25T06:18:52.111Z,203.63
2019-01-25T06:21:20.720Z,195.13
2019-01-25T06:23:52.130Z,191.57
2019-01-25T06:26:21.084Z,199.33
2019-01-25T06:28:51.970Z,211.80
2019-01-25T06:31:22.709Z,195.47
2019-01-25T06:33:52.058Z,202.13
2019-01-25T06:36:22.911Z,194.20
2019-01-25T06:38:55.648Z,211.43
2019-01-25T06:41:24.577Z,189.97
2019-01-25T06:43:57.646Z,209.40
2019-01-25T06:46:29.038Z,244.87
2019-01-25T06:48:58.116Z,235.07
2019-01-25T06:51:28.699Z,215.73
2019-01-25T06:53:57.712Z,219.80
2019-01-25T06:56:29.316Z,226.93
2019-01-25T06:59:07.646Z,196.70
2019-01-25T07:01:42.239Z,207.00
2019-01-25T07:04:11.729Z,206.37
2019-01-25T07:06:42.146Z,181.67
2019-01-25T07:09:21.242Z,167.80
2019-01-25T07:11:51.800Z,206.83
2019-01-25T07:14:25.344Z,207.30
2019-01-25T07:17:00.992Z,214.43
2019-01-25T07:19:33.140Z,186.70
2019-01-25T07:22:10.366Z,213.53
2019-01-25T07:24:40.158Z,191.80
2019-01-25T07:27:14.274Z,210.23
2019-01-25T07:29:56.118Z,203.13
2019-01-25T07:32:36.865Z,174.57
2019-01-25T07:35:08.575Z,231.03
2019-01-25T07:38:00.481Z,219.40
2019-01-25T07:40:16.035Z,230.47
2019-01-25T07:43:25.657Z,218.03
2019-01-25T07:45:47.601Z,212.00
2019-01-25T07:48:16.079Z,224.07
2019-01-25T07:50:46.146Z,203.77
2019-01-25T07:53:22.214Z,200.07
2019-01-25T07:55:59.102Z,205.77
2019-01-25T07:58:35.210Z,174.97
2019-01-25T08:01:31.337Z,200.93
2019-01-25T08:04:03.085Z,199.33
2019-01-25T08:06:31.824Z,186.43
2019-01-25T08:09:00.457Z,179.77
2019-01-25T08:11:29.249Z,172.53
2019-01-25T08:13:57.969Z,161.53
2019-01-25T08:16:27.008Z,168.70
2019-01-25T08:19:03.653Z,157.67
2019-01-25T08:21:40.814Z,152.63
2019-01-25T08:24:14.427Z,163.87
2019-01-25T08:26:52.923Z,164.17
2019-01-25T08:29:28.085Z,165.87
2019-01-25T08:31:56.415Z,169.53
2019-01-25T08:34:38.023Z,160.23
2019-01-25T08:37:09.647Z,147.83
2019-01-25T08:39:45.001Z,164.70
2019-01-25T08:42:16.485Z,177.33
2019-01-25T08:44:45.425Z,170.07
2019-01-25T08:47:14.213Z,175.27
2019-01-25T08:49:43.132Z,177.47
2019-01-25T08:52:12.123Z,185.77
2019-01-25T08:54:41.820Z,213.90
2019-01-25T08:57:17.930Z,196.00
2019-01-25T08:59:47.389Z,209.83
2019-01-25T09:02:20.689Z,197.90
2019-01-25T09:04:51.735Z,193.07
2019-01-25T09:07:21.985Z,183.67
2019-01-25T09:09:53.760Z,187.20
2019-01-25T09:12:23.372Z,182.07
2019-01-25T09:14:52.568Z,165.27
2019-01-25T09:17:21.425Z,172.53
2019-01-25T09:19:50.268Z,173.23
2019-01-25T09:22:22.471Z,184.17
2019-01-25T09:24:52.583Z,182.73
2019-01-25T09:27:21.413Z,189.40
2019-01-25T09:29:53.391Z,181.20
2019-01-25T09:32:22.138Z,194.37
2019-01-25T09:34:50.845Z,184.30
2019-01-25T09:37:19.517Z,180.33
2019-01-25T09:39:48.186Z,173.37
2019-01-25T09:42:16.957Z,164.20
2019-01-25T09:44:45.709Z,167.23
2019-01-25T09:47:14.446Z,164.93
2019-01-25T09:49:43.259Z,147.07
2019-01-25T09:52:14.662Z,156.33
2019-01-25T09:54:47.635Z,155.27
2019-01-25T09:57:19.291Z,145.33
2019-01-25T09:59:48.021Z,151.77
2019-01-25T10:02:16.720Z,141.80
2019-01-25T10:04:45.289Z,149.23
2019-01-25T10:07:13.921Z,144.57
2019-01-25T10:09:42.493Z,159.00
2019-01-25T10:12:11.116Z,165.83
2019-01-25T10:14:39.790Z,157.57
2019-01-25T10:17:08.446Z,173.37
2019-01-25T10:19:37.136Z,165.30
2019-01-25T10:22:05.774Z,166.07
2019-01-25T10:24:34.468Z,161.20
2019-01-25T10:27:05.869Z,153.67
2019-01-25T10:29:34.439Z,161.70
2019-01-25T10:32:03.128Z,165.87
2019-01-25T10:34:31.753Z,164.10
2019-01-25T10:37:03.486Z,158.20
2019-01-25T10:39:32.291Z,172.20
2019-01-25T10:42:01.094Z,155.50
2019-01-25T10:44:29.960Z,154.40
2019-01-25T10:46:58.627Z,156.50
2019-01-25T10:49:27.418Z,163.43
2019-01-25T10:51:57.716Z,152.23
2019-01-25T10:54:30.303Z,153.03
2019-01-25T10:56:59.046Z,154.00
2019-01-25T10:59:29.414Z,155.50
2019-01-25T11:01:58.249Z,141.10
2019-01-25T11:04:28.147Z,146.33
2019-01-25T11:06:56.904Z,160.70
2019-01-25T11:09:25.634Z,167.23
2019-01-25T11:11:54.494Z,152.60
2019-01-25T11:14:26.319Z,151.87
2019-01-25T11:16:54.966Z,132.70
2019-01-25T11:19:26.688Z,120.97
2019-01-25T11:22:01.374Z,131.90
2019-01-25T11:24:33.122Z,139.70
2019-01-25T11:27:02.001Z,149.90
2019-01-25T11:29:30.756Z,132.30
2019-01-25T11:31:59.474Z,140.93
2019-01-25T11:34:33.238Z,115.97
2019-01-25T11:37:07.426Z,135.77
2019-01-25T11:39:36.213Z,111.13
2019-01-25T11:42:05.046Z,101.90
2019-01-25T11:44:36.917Z,104.10
2019-01-25T11:47:05.622Z,118.23
2019-01-25T11:49:39.749Z,99.03
2019-01-25T11:52:12.570Z,88.77
2019-01-25T11:54:42.784Z,70.00
2019-01-25T11:57:11.565Z,75.97
2019-01-25T11:59:40.245Z,65.47
2019-01-25T12:02:08.980Z,58.80
2019-01-25T12:04:38.116Z,61.77
2019-01-25T12:07:06.853Z,67.40
2019-01-25T12:09:35.572Z,67.00
2019-01-25T12:12:04.402Z,67.83
2019-01-25T12:14:36.255Z,61.80
2019-01-25T12:17:05.131Z,61.57
2019-01-25T12:19:33.836Z,70.40
2019-01-25T12:22:02.598Z,65.47
2019-01-25T12:24:33.706Z,62.97
2019-01-25T12:27:02.668Z,68.87
2019-01-25T12:29:31.491Z,76.70
2019-01-25T12:32:03.184Z,78.50
2019-01-25T12:34:32.107Z,74.67
2019-01-25T12:37:04.703Z,82.47
2019-01-25T12:39:47.258Z,72.43
2019-01-25T12:42:19.467Z,68.87
2019-01-25T12:44:51.071Z,62.33
2019-01-25T12:47:19.959Z,71.50
2019-01-25T12:49:53.852Z,78.93
2019-01-25T12:52:22.932Z,73.93
2019-01-25T12:54:54.579Z,63.87
2019-01-25T12:57:25.824Z,72.67
2019-01-25T12:59:57.982Z,78.57
2019-01-25T13:02:26.734Z,73.77
2019-01-25T13:04:55.452Z,72.83
2019-01-25T13:07:24.113Z,70.03
2019-01-25T13:09:57.380Z,72.27
2019-01-25T13:12:26.221Z,73.13
2019-01-25T13:14:55.078Z,66.57
2019-01-25T13:17:26.513Z,68.97
2019-01-25T13:19:55.181Z,66.63
2019-01-25T13:22:23.879Z,67.83
2019-01-25T13:24:55.544Z,52.80
2019-01-25T13:27:24.251Z,43.57
2019-01-25T13:29:53.058Z,43.57
2019-01-25T13:32:21.843Z,43.80
2019-01-25T13:34:50.582Z,55.67
2019-01-25T13:37:19.416Z,52.30
2019-01-25T13:39:48.156Z,43.20
2019-01-25T13:42:18.967Z,56.43
2019-01-25T13:44:47.851Z,51.00
2019-01-25T13:47:16.601Z,54.23
2019-01-25T13:49:48.171Z,46.87
2019-01-25T13:52:16.821Z,50.97
2019-01-25T13:54:45.755Z,44.33
2019-01-25T13:57:16.003Z,37.77
2019-01-25T13:59:50.948Z,40.63
2019-01-25T14:02:19.793Z,37.97
2019-01-25T14:04:48.501Z,48.07
2019-01-25T14:07:21.094Z,46.80
2019-01-25T14:09:47.568Z,33.50
2019-01-25T14:12:19.312Z,42.37
2019-01-25T14:14:49.070Z,36.97
2019-01-25T14:17:17.734Z,36.93
2019-01-25T14:19:46.497Z,25.70
2019-01-25T14:22:15.107Z,37.87
2019-01-25T14:24:43.678Z,45.03
2019-01-25T14:27:12.234Z,48.37
2019-01-25T14:29:40.893Z,47.07
2019-01-25T14:32:13.641Z,50.83
2019-01-25T14:34:42.280Z,54.00
2019-01-25T14:37:10.910Z,46.53
2019-01-25T14:39:39.580Z,44.60
2019-01-25T14:42:08.214Z,50.83
2019-01-25T14:44:36.818Z,56.93
2019-01-25T14:47:05.457Z,60.93
2019-01-25T14:49:34.044Z,68.60
2019-01-25T14:52:02.715Z,75.07
2019-01-25T14:54:31.320Z,72.23
2019-01-25T14:57:02.668Z,69.67
2019-01-25T14:59:31.294Z,87.70
2019-01-25T15:01:59.963Z,85.73
2019-01-25T15:04:28.589Z,81.60
2019-01-25T15:06:57.316Z,83.87
2019-01-25T15:09:25.927Z,82.63
2019-01-25T15:11:54.485Z,83.90
2019-01-25T15:14:23.182Z,76.63
2019-01-25T15:16:51.726Z,85.77
2019-01-25T15:19:20.540Z,94.97
2019-01-25T15:21:49.154Z,95.17
2019-01-25T15:24:19.500Z,103.60
2019-01-25T15:26:48.131Z,82.60
2019-01-25T15:29:16.773Z,116.33
2019-01-25T15:31:49.617Z,71.57
2019-01-25T15:34:18.250Z,86.30
2019-01-25T15:36:46.841Z,72.33
2019-01-25T15:39:15.519Z,58.67
2019-01-25T15:41:44.201Z,62.33
2019-01-25T15:44:12.880Z,78.03
2019-01-25T15:46:41.557Z,66.27
2019-01-25T15:49:10.183Z,64.43
2019-01-25T15:51:38.931Z,69.23
2019-01-25T15:54:07.589Z,76.87
2019-01-25T15:56:36.350Z,95.60
2019-01-25T15:59:05.755Z,69.37
2019-01-25T16:01:34.472Z,75.37
2019-01-25T16:04:07.198Z,76.80
2019-01-25T16:06:35.927Z,72.93
2019-01-25T16:09:07.252Z,64.10
2019-01-25T16:11:35.883Z,74.13
2019-01-25T16:14:04.636Z,106.73
2019-01-25T16:16:33.311Z,95.67
2019-01-25T16:19:02.025Z,83.60
2019-01-25T16:21:30.789Z,102.77
2019-01-25T16:23:59.409Z,101.30
2019-01-25T16:26:28.098Z,100.40
2019-01-25T16:28:56.513Z,112.57
2019-01-25T16:31:26.236Z,96.47
2019-01-25T16:33:54.847Z,94.60
2019-01-25T16:36:23.487Z,124.57
2019-01-25T16:38:52.176Z,120.50
2019-01-25T16:41:24.940Z,120.90
2019-01-25T16:43:53.614Z,103.43
2019-01-25T16:46:22.932Z,94.07
2019-01-25T16:48:55.446Z,103.90
2019-01-25T16:51:29.990Z,107.57
2019-01-25T16:53:58.663Z,94.97
2019-01-25T16:56:27.306Z,81.40
2019-01-25T16:58:56.242Z,88.40
2019-01-25T17:01:24.893Z,118.67
2019-01-25T17:03:53.510Z,116.37
2019-01-25T17:06:22.275Z,148.00
2019-01-25T17:08:50.917Z,149.93
2019-01-25T17:11:19.588Z,124.83
2019-01-25T17:13:51.081Z,114.73
2019-01-25T17:16:19.729Z,121.00
2019-01-25T17:18:48.329Z,116.03
2019-01-25T17:21:17.005Z,118.60
2019-01-25T17:23:45.714Z,127.23
2019-01-25T17:26:15.040Z,121.20
2019-01-25T17:28:51.042Z,124.67
2019-01-25T17:31:19.777Z,121.13
2019-01-25T17:33:51.335Z,122.73
2019-01-25T17:36:19.974Z,110.83
2019-01-25T17:38:48.739Z,126.00
2019-01-25T17:41:18.047Z,121.40
2019-01-25T17:43:51.105Z,124.70
2019-01-25T17:46:19.753Z,130.77
2019-01-25T17:48:49.671Z,125.73
2019-01-25T17:51:18.408Z,111.73
2019-01-25T17:53:47.425Z,108.57
2019-01-25T17:56:18.785Z,108.10
2019-01-25T17:58:48.276Z,99.47
2019-01-25T18:01:16.976Z,105.40
2019-01-25T18:03:48.752Z,97.40
2019-01-25T18:06:17.423Z,103.03
2019-01-25T18:08:46.584Z,102.70
2019-01-25T18:11:15.905Z,104.80
2019-01-25T18:13:47.267Z,90.83
2019-01-25T18:16:18.787Z,112.40
2019-01-25T18:18:52.311Z,100.70
2019-01-25T18:21:24.037Z,109.33
2019-01-25T18:23:52.624Z,114.50
2019-01-25T18:26:30.286Z,100.13
2019-01-25T18:28:58.852Z,113.73
2019-01-25T18:31:28.935Z,95.67
2019-01-25T18:33:57.493Z,122.60
2019-01-25T18:36:26.118Z,134.27
2019-01-25T18:38:54.808Z,131.00
2019-01-25T18:41:31.756Z,130.80
2019-01-25T18:44:00.505Z,112.37
2019-01-25T18:46:29.166Z,126.87
2019-01-25T18:48:58.513Z,110.33
2019-01-25T18:51:30.094Z,123.10
2019-01-25T18:53:58.777Z,123.03
2019-01-25T18:56:28.166Z,109.93
2019-01-25T18:59:05.793Z,103.50
2019-01-25T19:01:34.475Z,106.30
2019-01-25T19:04:10.103Z,115.23
2019-01-25T19:06:38.859Z,108.57
2019-01-25T19:09:11.429Z,97.23
2019-01-25T19:11:40.153Z,109.83
2019-01-25T19:14:08.806Z,116.97
2019-01-25T19:16:41.516Z,114.33
2019-01-25T19:19:10.222Z,119.33
2019-01-25T19:21:39.404Z,114.83
2019-01-25T19:24:10.949Z,124.60
2019-01-25T19:26:42.306Z,106.83
2019-01-25T19:29:13.773Z,118.57
2019-01-25T19:31:42.409Z,130.23
2019-01-25T19:34:11.095Z,114.67
2019-01-25T19:36:39.743Z,123.63
2019-01-25T19:39:09.678Z,123.33
2019-01-25T19:41:38.375Z,111.20
2019-01-25T19:44:07.071Z,118.17
2019-01-25T19:46:42.148Z,124.90
2019-01-25T19:49:12.806Z,107.07
2019-01-25T19:51:41.453Z,101.57
2019-01-25T19:54:16.254Z,109.67
2019-01-25T19:56:44.901Z,105.40
2019-01-25T19:59:13.603Z,114.50
2019-01-25T20:01:42.299Z,116.67
2019-01-25T20:04:13.761Z,131.20
2019-01-25T20:06:45.412Z,90.10
2019-01-25T20:09:17.081Z,114.87
2019-01-25T20:11:45.794Z,112.77
2019-01-25T20:14:14.592Z,103.80
2019-01-25T20:16:44.009Z,105.37
2019-01-25T20:19:12.708Z,103.70
2019-01-25T20:21:41.332Z,105.40
2019-01-25T20:24:10.027Z,100.67
2019-01-25T20:26:38.704Z,69.13
2019-01-25T20:29:07.344Z,95.50
2019-01-25T20:31:36.025Z,95.23
2019-01-25T20:34:04.653Z,86.90
2019-01-25T20:36:33.276Z,77.33
2019-01-25T20:39:02.626Z,76.50
2019-01-25T20:41:31.267Z,79.17
2019-01-25T20:43:59.947Z,74.70
2019-01-25T20:46:32.069Z,73.63
2019-01-25T20:49:03.799Z,80.27
2019-01-25T20:51:32.445Z,74.63
2019-01-25T20:54:04.106Z,80.60
2019-01-25T20:56:38.703Z,58.70
2019-01-25T20:59:07.380Z,82.40
2019-01-25T21:01:40.720Z,66.87
2019-01-25T21:04:09.483Z,65.03
2019-01-25T21:06:39.064Z,81.27
2019-01-25T21:09:09.847Z,65.93
2019-01-25T21:11:38.504Z,74.07
2019-01-25T21:14:07.132Z,73.50
2019-01-25T21:16:35.694Z,60.07
2019-01-25T21:19:09.435Z,60.03
2019-01-25T21:21:37.981Z,70.13
2019-01-25T21:24:13.874Z,63.67
2019-01-25T21:26:45.283Z,70.87
2019-01-25T21:29:14.251Z,56.30
2019-01-25T21:31:42.896Z,66.53
2019-01-25T21:34:11.675Z,80.73
2019-01-25T21:36:40.312Z,83.47
2019-01-25T21:39:09.073Z,85.87
2019-01-25T21:41:37.744Z,88.23
2019-01-25T21:44:06.454Z,79.80
2019-01-25T21:46:40.008Z,70.87
2019-01-25T21:49:05.661Z,88.07
2019-01-25T21:51:34.312Z,91.97
2019-01-25T21:54:02.944Z,98.47
2019-01-25T21:56:31.782Z,85.07
2019-01-25T21:59:03.149Z,86.00
2019-01-25T22:01:31.761Z,93.70
2019-01-25T22:04:00.513Z,101.17
2019-01-25T22:06:29.902Z,97.67
2019-01-25T22:09:01.947Z,90.27
2019-01-25T22:11:30.580Z,96.30
2019-01-25T22:13:59.261Z,111.37
2019-01-25T22:16:27.900Z,106.40
2019-01-25T22:18:56.531Z,118.77
2019-01-25T22:21:25.165Z,109.83
2019-01-25T22:23:53.802Z,111.93
2019-01-25T22:26:22.388Z,117.93
2019-01-25T22:28:50.944Z,108.13
2019-01-25T22:31:22.813Z,112.87
2019-01-25T22:33:51.421Z,117.37
2019-01-25T22:36:20.112Z,122.10
2019-01-25T22:38:48.753Z,124.37
2019-01-25T22:41:17.359Z,120.40
2019-01-25T22:43:45.968Z,133.93
2019-01-25T22:46:14.598Z,117.93
2019-01-25T22:48:43.214Z,111.63
2019-01-25T22:51:11.907Z,116.50
2019-01-25T22:53:40.465Z,118.37
2019-01-25T22:56:09.136Z,108.40
2019-01-25T22:58:40.567Z,95.37
2019-01-25T23:01:18.126Z,116.37
2019-01-25T23:03:50.960Z,113.67
2019-01-25T23:06:28.244Z,101.97
2019-01-25T23:09:00.224Z,110.17
2019-01-25T23:11:28.858Z,101.60
2019-01-25T23:13:57.549Z,107.23
2019-01-25T23:16:26.168Z,86.23
2019-01-25T23:18:54.843Z,90.27
2019-01-25T23:21:23.515Z,85.03
2019-01-25T23:23:52.158Z,88.03
2019-01-25T23:26:20.780Z,86.27
2019-01-25T23:28:49.449Z,79.90
2019-01-25T23:31:18.083Z,86.67
2019-01-25T23:33:46.746Z,80.67
2019-01-25T23:36:15.306Z,75.83
2019-01-25T23:38:43.800Z,83.30
2019-01-25T23:41:12.357Z,76.43
2019-01-25T23:43:40.992Z,84.27
2019-01-25T23:46:13.811Z,89.73
2019-01-25T23:48:40.001Z,83.33
2019-01-25T23:51:08.687Z,77.60
2019-01-25T23:53:37.368Z,81.57
2019-01-25T23:56:06.000Z,76.73
2019-01-25T23:58:34.615Z,84.90
